sensor_id;sensor_type;location;lat;lon;timestamp;P1;durP1;ratioP1;P2;durP2;ratioP2
948;SDS011;461;51.436;7.312;2023-06-22T00:01:59;10.00;;;7.90;;
948;SDS011;461;51.436;7.312;2023-06-22T00:04:25;10.10;;;7.00;;
948;SDS011;461;51.436;7.312;2023-06-22T00:06:51;8.50;;;7.60;;
948;SDS011;461;51.436;7.312;2023-06-22T00:09:17;9.97;;;8.10;;
948;SDS011;461;51.436;7.312;2023-06-22T00:11:43;9.97;;;7.70;;
948;SDS011;461;51.436;7.312;2023-06-22T00:14:09;9.73;;;8.20;;
948;SDS011;461;51.436;7.312;2023-06-22T00:16:36;10.90;;;8.20;;
948;SDS011;461;51.436;7.312;2023-06-22T00:19:02;8.73;;;7.57;;
948;SDS011;461;51.436;7.312;2023-06-22T00:21:28;10.20;;;7.73;;
948;SDS011;461;51.436;7.312;2023-06-22T00:23:55;11.00;;;7.50;;
948;SDS011;461;51.436;7.312;2023-06-22T00:26:22;12.10;;;7.87;;
948;SDS011;461;51.436;7.312;2023-06-22T00:28:48;8.33;;;7.50;;
948;SDS011;461;51.436;7.312;2023-06-22T00:31:14;10.20;;;8.07;;
948;SDS011;461;51.436;7.312;2023-06-22T00:33:40;8.93;;;8.10;;
948;SDS011;461;51.436;7.312;2023-06-22T00:36:07;7.90;;;7.10;;
948;SDS011;461;51.436;7.312;2023-06-22T00:38:33;11.23;;;8.03;;
948;SDS011;461;51.436;7.312;2023-06-22T00:40:59;13.73;;;6.93;;
948;SDS011;461;51.436;7.312;2023-06-22T00:43:25;9.90;;;7.40;;
948;SDS011;461;51.436;7.312;2023-06-22T00:45:51;8.33;;;7.53;;
948;SDS011;461;51.436;7.312;2023-06-22T00:48:18;11.13;;;7.30;;
948;SDS011;461;51.436;7.312;2023-06-22T00:50:44;11.23;;;8.70;;
948;SDS011;461;51.436;7.312;2023-06-22T00:53:10;9.23;;;7.43;;
948;SDS011;461;51.436;7.312;2023-06-22T00:55:45;10.17;;;8.43;;
948;SDS011;461;51.436;7.312;2023-06-22T00:58:12;10.10;;;7.87;;
948;SDS011;461;51.436;7.312;2023-06-22T01:00:39;9.20;;;8.20;;
948;SDS011;461;51.436;7.312;2023-06-22T01:03:06;9.43;;;7.60;;
948;SDS011;461;51.436;7.312;2023-06-22T01:05:34;11.03;;;7.50;;
948;SDS011;461;51.436;7.312;2023-06-22T01:08:19;13.00;;;8.43;;
948;SDS011;461;51.436;7.312;2023-06-22T01:10:51;10.70;;;8.03;;
948;SDS011;461;51.436;7.312;2023-06-22T01:16:05;9.67;;;8.37;;
948;SDS011;461;51.436;7.312;2023-06-22T01:18:34;10.33;;;8.40;;
948;SDS011;461;51.436;7.312;2023-06-22T01:21:02;8.50;;;7.20;;
948;SDS011;461;51.436;7.312;2023-06-22T01:23:37;8.97;;;8.07;;
948;SDS011;461;51.436;7.312;2023-06-22T01:28:56;8.63;;;7.33;;
948;SDS011;461;51.436;7.312;2023-06-22T01:31:24;8.50;;;7.23;;
948;SDS011;461;51.436;7.312;2023-06-22T01:33:51;12.17;;;8.87;;
948;SDS011;461;51.436;7.312;2023-06-22T01:36:18;8.37;;;7.53;;
948;SDS011;461;51.436;7.312;2023-06-22T01:38:45;10.60;;;7.80;;
948;SDS011;461;51.436;7.312;2023-06-22T01:41:12;9.83;;;8.93;;
948;SDS011;461;51.436;7.312;2023-06-22T01:43:39;11.63;;;8.07;;
948;SDS011;461;51.436;7.312;2023-06-22T01:46:05;11.17;;;9.30;;
948;SDS011;461;51.436;7.312;2023-06-22T01:48:32;14.30;;;9.10;;
948;SDS011;461;51.436;7.312;2023-06-22T01:50:58;10.03;;;9.00;;
948;SDS011;461;51.436;7.312;2023-06-22T01:53:24;12.83;;;8.80;;
948;SDS011;461;51.436;7.312;2023-06-22T01:55:50;13.83;;;9.83;;
948;SDS011;461;51.436;7.312;2023-06-22T01:58:17;9.20;;;8.30;;
948;SDS011;461;51.436;7.312;2023-06-22T02:00:50;15.53;;;9.50;;
948;SDS011;461;51.436;7.312;2023-06-22T02:03:19;9.50;;;8.37;;
948;SDS011;461;51.436;7.312;2023-06-22T02:05:52;12.10;;;8.63;;
948;SDS011;461;51.436;7.312;2023-06-22T02:08:24;13.40;;;9.70;;
948;SDS011;461;51.436;7.312;2023-06-22T02:10:51;10.53;;;8.50;;
948;SDS011;461;51.436;7.312;2023-06-22T02:13:18;11.43;;;9.30;;
948;SDS011;461;51.436;7.312;2023-06-22T02:15:45;10.37;;;9.30;;
948;SDS011;461;51.436;7.312;2023-06-22T02:18:12;10.93;;;8.10;;
948;SDS011;461;51.436;7.312;2023-06-22T02:20:38;9.83;;;6.70;;
948;SDS011;461;51.436;7.312;2023-06-22T02:23:05;10.50;;;9.60;;
948;SDS011;461;51.436;7.312;2023-06-22T02:25:32;10.10;;;8.97;;
948;SDS011;461;51.436;7.312;2023-06-22T02:27:58;9.90;;;8.73;;
948;SDS011;461;51.436;7.312;2023-06-22T02:30:24;10.57;;;8.80;;
948;SDS011;461;51.436;7.312;2023-06-22T02:32:50;11.93;;;8.50;;
948;SDS011;461;51.436;7.312;2023-06-22T02:35:24;14.43;;;9.60;;
948;SDS011;461;51.436;7.312;2023-06-22T02:37:50;10.93;;;9.43;;
948;SDS011;461;51.436;7.312;2023-06-22T02:40:17;11.27;;;9.03;;
948;SDS011;461;51.436;7.312;2023-06-22T02:42:43;12.33;;;9.33;;
948;SDS011;461;51.436;7.312;2023-06-22T02:45:09;10.80;;;9.13;;
948;SDS011;461;51.436;7.312;2023-06-22T02:47:35;10.67;;;9.60;;
948;SDS011;461;51.436;7.312;2023-06-22T02:50:01;11.27;;;10.17;;
948;SDS011;461;51.436;7.312;2023-06-22T02:52:27;12.50;;;9.60;;
948;SDS011;461;51.436;7.312;2023-06-22T02:54:53;11.10;;;9.43;;
948;SDS011;461;51.436;7.312;2023-06-22T02:57:19;11.57;;;10.37;;
948;SDS011;461;51.436;7.312;2023-06-22T02:59:46;9.90;;;8.80;;
948;SDS011;461;51.436;7.312;2023-06-22T03:02:12;9.73;;;8.73;;
948;SDS011;461;51.436;7.312;2023-06-22T03:04:38;6.80;;;6.10;;
948;SDS011;461;51.436;7.312;2023-06-22T03:07:04;8.53;;;7.73;;
948;SDS011;461;51.436;7.312;2023-06-22T03:09:30;14.13;;;10.17;;
948;SDS011;461;51.436;7.312;2023-06-22T03:11:56;11.83;;;10.33;;
948;SDS011;461;51.436;7.312;2023-06-22T03:14:22;13.10;;;10.93;;
948;SDS011;461;51.436;7.312;2023-06-22T03:16:48;11.33;;;10.23;;
948;SDS011;461;51.436;7.312;2023-06-22T03:19:14;12.83;;;11.13;;
948;SDS011;461;51.436;7.312;2023-06-22T03:21:41;12.87;;;11.57;;
948;SDS011;461;51.436;7.312;2023-06-22T03:24:07;14.40;;;10.90;;
948;SDS011;461;51.436;7.312;2023-06-22T03:26:34;13.10;;;10.90;;
948;SDS011;461;51.436;7.312;2023-06-22T03:29:00;11.37;;;10.30;;
948;SDS011;461;51.436;7.312;2023-06-22T03:31:26;12.40;;;11.27;;
948;SDS011;461;51.436;7.312;2023-06-22T03:33:52;17.20;;;11.10;;
948;SDS011;461;51.436;7.312;2023-06-22T03:36:19;14.23;;;11.30;;
948;SDS011;461;51.436;7.312;2023-06-22T03:38:45;13.07;;;11.70;;
948;SDS011;461;51.436;7.312;2023-06-22T03:41:11;19.97;;;14.00;;
948;SDS011;461;51.436;7.312;2023-06-22T03:43:38;13.73;;;12.37;;
948;SDS011;461;51.436;7.312;2023-06-22T03:46:04;19.40;;;13.30;;
948;SDS011;461;51.436;7.312;2023-06-22T03:48:30;14.43;;;12.67;;
948;SDS011;461;51.436;7.312;2023-06-22T03:50:56;14.83;;;13.13;;
948;SDS011;461;51.436;7.312;2023-06-22T03:53:22;14.87;;;13.23;;
948;SDS011;461;51.436;7.312;2023-06-22T03:55:49;15.83;;;14.13;;
948;SDS011;461;51.436;7.312;2023-06-22T03:58:16;15.50;;;13.90;;
948;SDS011;461;51.436;7.312;2023-06-22T04:00:44;14.87;;;12.60;;
948;SDS011;461;51.436;7.312;2023-06-22T04:03:10;18.67;;;13.53;;
948;SDS011;461;51.436;7.312;2023-06-22T04:05:38;15.60;;;13.97;;
948;SDS011;461;51.436;7.312;2023-06-22T04:08:04;19.23;;;13.70;;
948;SDS011;461;51.436;7.312;2023-06-22T04:10:30;13.90;;;12.70;;
948;SDS011;461;51.436;7.312;2023-06-22T04:12:56;14.30;;;13.00;;
948;SDS011;461;51.436;7.312;2023-06-22T04:15:22;21.37;;;13.10;;
948;SDS011;461;51.436;7.312;2023-06-22T04:17:49;18.20;;;12.77;;
948;SDS011;461;51.436;7.312;2023-06-22T04:20:15;15.63;;;12.33;;
948;SDS011;461;51.436;7.312;2023-06-22T04:22:41;17.87;;;14.53;;
948;SDS011;461;51.436;7.312;2023-06-22T04:25:07;15.13;;;13.53;;
948;SDS011;461;51.436;7.312;2023-06-22T04:27:33;15.20;;;13.80;;
948;SDS011;461;51.436;7.312;2023-06-22T04:30:06;15.70;;;13.40;;
948;SDS011;461;51.436;7.312;2023-06-22T04:32:33;18.47;;;14.20;;
948;SDS011;461;51.436;7.312;2023-06-22T04:35:01;14.77;;;13.30;;
948;SDS011;461;51.436;7.312;2023-06-22T04:37:27;15.90;;;13.60;;
948;SDS011;461;51.436;7.312;2023-06-22T04:39:53;16.10;;;13.67;;
948;SDS011;461;51.436;7.312;2023-06-22T04:42:19;14.50;;;12.90;;
948;SDS011;461;51.436;7.312;2023-06-22T04:44:45;18.53;;;14.10;;
948;SDS011;461;51.436;7.312;2023-06-22T04:47:12;18.83;;;13.23;;
948;SDS011;461;51.436;7.312;2023-06-22T04:49:38;15.97;;;13.63;;
948;SDS011;461;51.436;7.312;2023-06-22T04:52:08;17.23;;;13.70;;
948;SDS011;461;51.436;7.312;2023-06-22T04:54:35;15.83;;;13.47;;
948;SDS011;461;51.436;7.312;2023-06-22T04:57:07;18.77;;;12.93;;
948;SDS011;461;51.436;7.312;2023-06-22T04:59:36;14.93;;;13.40;;
948;SDS011;461;51.436;7.312;2023-06-22T05:02:04;13.77;;;12.00;;
948;SDS011;461;51.436;7.312;2023-06-22T05:04:31;13.07;;;11.57;;
948;SDS011;461;51.436;7.312;2023-06-22T05:06:57;13.43;;;10.60;;
948;SDS011;461;51.436;7.312;2023-06-22T05:09:23;15.90;;;12.83;;
948;SDS011;461;51.436;7.312;2023-06-22T05:11:50;18.23;;;12.40;;
948;SDS011;461;51.436;7.312;2023-06-22T05:14:16;10.80;;;9.70;;
948;SDS011;461;51.436;7.312;2023-06-22T05:16:43;11.27;;;10.10;;
948;SDS011;461;51.436;7.312;2023-06-22T05:19:09;15.63;;;12.40;;
948;SDS011;461;51.436;7.312;2023-06-22T05:21:35;14.43;;;12.60;;
948;SDS011;461;51.436;7.312;2023-06-22T05:24:01;13.80;;;12.40;;
948;SDS011;461;51.436;7.312;2023-06-22T05:26:28;11.97;;;10.60;;
948;SDS011;461;51.436;7.312;2023-06-22T05:28:55;17.00;;;12.70;;
948;SDS011;461;51.436;7.312;2023-06-22T05:31:21;13.90;;;11.73;;
948;SDS011;461;51.436;7.312;2023-06-22T05:33:49;12.27;;;11.10;;
948;SDS011;461;51.436;7.312;2023-06-22T05:36:15;14.70;;;10.47;;
948;SDS011;461;51.436;7.312;2023-06-22T05:38:41;13.63;;;11.10;;
948;SDS011;461;51.436;7.312;2023-06-22T05:41:07;12.13;;;10.83;;
948;SDS011;461;51.436;7.312;2023-06-22T05:43:34;15.47;;;10.43;;
948;SDS011;461;51.436;7.312;2023-06-22T05:46:00;18.40;;;11.27;;
948;SDS011;461;51.436;7.312;2023-06-22T05:48:27;12.80;;;11.20;;
948;SDS011;461;51.436;7.312;2023-06-22T05:50:53;13.03;;;11.47;;
948;SDS011;461;51.436;7.312;2023-06-22T05:53:19;11.57;;;10.30;;
948;SDS011;461;51.436;7.312;2023-06-22T05:55:46;14.23;;;11.27;;
948;SDS011;461;51.436;7.312;2023-06-22T05:58:12;13.80;;;12.30;;
948;SDS011;461;51.436;7.312;2023-06-22T06:00:38;14.90;;;11.10;;
948;SDS011;461;51.436;7.312;2023-06-22T06:03:04;17.43;;;10.30;;
948;SDS011;461;51.436;7.312;2023-06-22T06:05:31;13.43;;;11.37;;
948;SDS011;461;51.436;7.312;2023-06-22T06:07:59;11.77;;;10.43;;
948;SDS011;461;51.436;7.312;2023-06-22T06:10:25;12.30;;;10.93;;
948;SDS011;461;51.436;7.312;2023-06-22T06:12:51;12.00;;;10.77;;
948;SDS011;461;51.436;7.312;2023-06-22T06:15:17;18.23;;;11.40;;
948;SDS011;461;51.436;7.312;2023-06-22T06:17:53;13.80;;;10.47;;
948;SDS011;461;51.436;7.312;2023-06-22T06:20:20;17.17;;;12.13;;
948;SDS011;461;51.436;7.312;2023-06-22T06:22:46;15.50;;;11.00;;
948;SDS011;461;51.436;7.312;2023-06-22T06:25:13;12.67;;;11.37;;
948;SDS011;461;51.436;7.312;2023-06-22T06:27:43;14.80;;;11.90;;
948;SDS011;461;51.436;7.312;2023-06-22T06:30:12;14.37;;;11.57;;
948;SDS011;461;51.436;7.312;2023-06-22T06:32:39;14.17;;;11.80;;
948;SDS011;461;51.436;7.312;2023-06-22T06:35:08;15.60;;;13.87;;
948;SDS011;461;51.436;7.312;2023-06-22T06:37:36;13.40;;;12.00;;
948;SDS011;461;51.436;7.312;2023-06-22T06:40:03;16.30;;;13.60;;
948;SDS011;461;51.436;7.312;2023-06-22T06:42:39;14.13;;;12.63;;
948;SDS011;461;51.436;7.312;2023-06-22T06:45:10;14.10;;;12.80;;
948;SDS011;461;51.436;7.312;2023-06-22T06:47:37;14.23;;;11.50;;
948;SDS011;461;51.436;7.312;2023-06-22T06:50:04;26.03;;;13.90;;
948;SDS011;461;51.436;7.312;2023-06-22T06:52:30;16.17;;;13.00;;
948;SDS011;461;51.436;7.312;2023-06-22T06:54:56;15.27;;;13.67;;
948;SDS011;461;51.436;7.312;2023-06-22T06:57:22;13.60;;;12.17;;
948;SDS011;461;51.436;7.312;2023-06-22T06:59:48;13.97;;;12.57;;
948;SDS011;461;51.436;7.312;2023-06-22T07:02:15;15.40;;;12.73;;
948;SDS011;461;51.436;7.312;2023-06-22T07:04:42;14.47;;;12.97;;
948;SDS011;461;51.436;7.312;2023-06-22T07:07:08;15.87;;;13.90;;
948;SDS011;461;51.436;7.312;2023-06-22T07:09:34;13.90;;;11.60;;
948;SDS011;461;51.436;7.312;2023-06-22T07:12:00;14.43;;;12.60;;
948;SDS011;461;51.436;7.312;2023-06-22T07:14:26;13.57;;;12.17;;
948;SDS011;461;51.436;7.312;2023-06-22T07:16:52;14.33;;;12.90;;
948;SDS011;461;51.436;7.312;2023-06-22T07:19:28;16.37;;;12.73;;
948;SDS011;461;51.436;7.312;2023-06-22T07:21:54;13.57;;;12.27;;
948;SDS011;461;51.436;7.312;2023-06-22T07:24:21;14.30;;;12.80;;
948;SDS011;461;51.436;7.312;2023-06-22T07:26:48;17.20;;;13.67;;
948;SDS011;461;51.436;7.312;2023-06-22T07:29:17;16.13;;;13.47;;
948;SDS011;461;51.436;7.312;2023-06-22T07:31:45;14.00;;;12.23;;
948;SDS011;461;51.436;7.312;2023-06-22T07:34:11;17.33;;;13.40;;
948;SDS011;461;51.436;7.312;2023-06-22T07:36:37;14.80;;;13.30;;
948;SDS011;461;51.436;7.312;2023-06-22T07:39:03;17.73;;;13.77;;
948;SDS011;461;51.436;7.312;2023-06-22T07:41:30;17.10;;;14.00;;
948;SDS011;461;51.436;7.312;2023-06-22T07:43:56;16.73;;;15.03;;
948;SDS011;461;51.436;7.312;2023-06-22T07:46:22;18.30;;;15.23;;
948;SDS011;461;51.436;7.312;2023-06-22T07:48:48;18.10;;;15.20;;
948;SDS011;461;51.436;7.312;2023-06-22T07:51:15;19.80;;;14.73;;
948;SDS011;461;51.436;7.312;2023-06-22T07:53:41;19.30;;;15.40;;
948;SDS011;461;51.436;7.312;2023-06-22T07:56:11;21.13;;;15.70;;
948;SDS011;461;51.436;7.312;2023-06-22T07:58:37;16.57;;;14.93;;
948;SDS011;461;51.436;7.312;2023-06-22T08:01:03;17.53;;;15.53;;
948;SDS011;461;51.436;7.312;2023-06-22T08:03:29;24.03;;;15.83;;
948;SDS011;461;51.436;7.312;2023-06-22T08:05:55;16.90;;;15.30;;
948;SDS011;461;51.436;7.312;2023-06-22T08:08:22;22.57;;;16.70;;
948;SDS011;461;51.436;7.312;2023-06-22T08:10:48;21.87;;;17.40;;
948;SDS011;461;51.436;7.312;2023-06-22T08:13:14;18.97;;;16.93;;
948;SDS011;461;51.436;7.312;2023-06-22T08:15:40;19.53;;;17.43;;
948;SDS011;461;51.436;7.312;2023-06-22T08:18:06;23.40;;;18.10;;
948;SDS011;461;51.436;7.312;2023-06-22T08:20:32;20.27;;;17.67;;
948;SDS011;461;51.436;7.312;2023-06-22T08:22:58;24.43;;;18.50;;
948;SDS011;461;51.436;7.312;2023-06-22T08:25:30;21.17;;;19.00;;
948;SDS011;461;51.436;7.312;2023-06-22T08:27:56;21.50;;;18.57;;
948;SDS011;461;51.436;7.312;2023-06-22T08:30:23;21.13;;;17.70;;
948;SDS011;461;51.436;7.312;2023-06-22T08:32:49;24.17;;;17.73;;
948;SDS011;461;51.436;7.312;2023-06-22T08:35:15;20.50;;;17.10;;
948;SDS011;461;51.436;7.312;2023-06-22T08:37:41;22.20;;;18.70;;
948;SDS011;461;51.436;7.312;2023-06-22T08:40:08;22.40;;;19.53;;
948;SDS011;461;51.436;7.312;2023-06-22T08:42:35;20.30;;;17.83;;
948;SDS011;461;51.436;7.312;2023-06-22T08:45:02;19.87;;;17.77;;
948;SDS011;461;51.436;7.312;2023-06-22T08:47:28;23.20;;;19.50;;
948;SDS011;461;51.436;7.312;2023-06-22T08:49:54;20.97;;;18.87;;
948;SDS011;461;51.436;7.312;2023-06-22T08:52:20;21.83;;;18.20;;
948;SDS011;461;51.436;7.312;2023-06-22T08:54:48;18.33;;;16.00;;
948;SDS011;461;51.436;7.312;2023-06-22T08:57:14;16.73;;;15.03;;
948;SDS011;461;51.436;7.312;2023-06-22T08:59:41;16.47;;;14.50;;
948;SDS011;461;51.436;7.312;2023-06-22T09:02:07;15.37;;;13.87;;
948;SDS011;461;51.436;7.312;2023-06-22T09:04:34;18.40;;;16.03;;
948;SDS011;461;51.436;7.312;2023-06-22T09:07:01;14.57;;;13.17;;
948;SDS011;461;51.436;7.312;2023-06-22T09:09:27;18.90;;;13.20;;
948;SDS011;461;51.436;7.312;2023-06-22T09:11:53;14.03;;;12.53;;
948;SDS011;461;51.436;7.312;2023-06-22T09:14:19;12.70;;;11.40;;
948;SDS011;461;51.436;7.312;2023-06-22T09:16:45;11.83;;;10.60;;
948;SDS011;461;51.436;7.312;2023-06-22T09:19:11;12.23;;;10.90;;
948;SDS011;461;51.436;7.312;2023-06-22T09:21:38;14.30;;;10.03;;
948;SDS011;461;51.436;7.312;2023-06-22T09:24:04;13.03;;;11.60;;
948;SDS011;461;51.436;7.312;2023-06-22T09:26:30;12.40;;;11.30;;
948;SDS011;461;51.436;7.312;2023-06-22T09:28:56;11.90;;;10.80;;
948;SDS011;461;51.436;7.312;2023-06-22T09:31:23;12.23;;;11.10;;
948;SDS011;461;51.436;7.312;2023-06-22T09:33:57;11.03;;;9.93;;
948;SDS011;461;51.436;7.312;2023-06-22T09:36:24;10.50;;;9.37;;
948;SDS011;461;51.436;7.312;2023-06-22T09:38:50;11.07;;;9.97;;
948;SDS011;461;51.436;7.312;2023-06-22T09:41:20;9.23;;;8.27;;
948;SDS011;461;51.436;7.312;2023-06-22T09:43:46;11.13;;;10.00;;
948;SDS011;461;51.436;7.312;2023-06-22T09:46:16;10.10;;;9.20;;
948;SDS011;461;51.436;7.312;2023-06-22T09:48:42;9.37;;;8.47;;
948;SDS011;461;51.436;7.312;2023-06-22T09:51:08;10.40;;;7.93;;
948;SDS011;461;51.436;7.312;2023-06-22T09:53:34;11.20;;;8.97;;
948;SDS011;461;51.436;7.312;2023-06-22T09:56:01;9.23;;;8.43;;
948;SDS011;461;51.436;7.312;2023-06-22T09:58:27;9.43;;;8.53;;
948;SDS011;461;51.436;7.312;2023-06-22T10:01:02;11.93;;;7.77;;
948;SDS011;461;51.436;7.312;2023-06-22T10:03:28;8.40;;;7.57;;
948;SDS011;461;51.436;7.312;2023-06-22T10:05:54;9.20;;;8.30;;
948;SDS011;461;51.436;7.312;2023-06-22T10:08:20;9.97;;;8.93;;
948;SDS011;461;51.436;7.312;2023-06-22T10:10:46;10.90;;;8.50;;
948;SDS011;461;51.436;7.312;2023-06-22T10:13:12;9.50;;;8.60;;
948;SDS011;461;51.436;7.312;2023-06-22T10:15:40;9.83;;;8.93;;
948;SDS011;461;51.436;7.312;2023-06-22T10:18:06;9.10;;;8.17;;
948;SDS011;461;51.436;7.312;2023-06-22T10:20:32;9.80;;;8.90;;
948;SDS011;461;51.436;7.312;2023-06-22T10:25:33;8.63;;;7.83;;
948;SDS011;461;51.436;7.312;2023-06-22T10:28:00;9.87;;;8.90;;
948;SDS011;461;51.436;7.312;2023-06-22T10:30:26;11.03;;;9.93;;
948;SDS011;461;51.436;7.312;2023-06-22T10:32:53;11.03;;;9.20;;
948;SDS011;461;51.436;7.312;2023-06-22T10:35:20;9.77;;;8.77;;
948;SDS011;461;51.436;7.312;2023-06-22T10:37:46;9.80;;;8.80;;
948;SDS011;461;51.436;7.312;2023-06-22T10:40:13;12.77;;;11.20;;
948;SDS011;461;51.436;7.312;2023-06-22T10:42:40;10.60;;;9.30;;
948;SDS011;461;51.436;7.312;2023-06-22T10:45:06;11.77;;;10.67;;
948;SDS011;461;51.436;7.312;2023-06-22T10:47:36;13.77;;;9.73;;
948;SDS011;461;51.436;7.312;2023-06-22T10:50:05;11.87;;;10.77;;
948;SDS011;461;51.436;7.312;2023-06-22T10:52:31;10.93;;;9.90;;
948;SDS011;461;51.436;7.312;2023-06-22T10:54:58;11.60;;;10.40;;
948;SDS011;461;51.436;7.312;2023-06-22T10:57:24;12.60;;;11.27;;
948;SDS011;461;51.436;7.312;2023-06-22T10:59:50;11.10;;;10.10;;
948;SDS011;461;51.436;7.312;2023-06-22T11:02:16;11.80;;;10.60;;
948;SDS011;461;51.436;7.312;2023-06-22T11:04:42;14.30;;;11.13;;
948;SDS011;461;51.436;7.312;2023-06-22T11:07:09;11.67;;;10.57;;
948;SDS011;461;51.436;7.312;2023-06-22T11:09:35;11.60;;;10.00;;
948;SDS011;461;51.436;7.312;2023-06-22T11:12:03;14.60;;;11.57;;
948;SDS011;461;51.436;7.312;2023-06-22T11:14:36;12.10;;;10.27;;
948;SDS011;461;51.436;7.312;2023-06-22T11:17:05;11.20;;;10.00;;
948;SDS011;461;51.436;7.312;2023-06-22T11:22:08;11.83;;;10.60;;
948;SDS011;461;51.436;7.312;2023-06-22T11:24:37;14.03;;;11.70;;
948;SDS011;461;51.436;7.312;2023-06-22T11:27:05;13.97;;;12.43;;
948;SDS011;461;51.436;7.312;2023-06-22T11:29:32;14.30;;;11.73;;
948;SDS011;461;51.436;7.312;2023-06-22T11:31:59;14.53;;;12.30;;
948;SDS011;461;51.436;7.312;2023-06-22T11:34:44;13.80;;;12.40;;
948;SDS011;461;51.436;7.312;2023-06-22T11:37:10;16.43;;;14.67;;
948;SDS011;461;51.436;7.312;2023-06-22T11:39:46;19.20;;;13.80;;
948;SDS011;461;51.436;7.312;2023-06-22T11:42:12;14.93;;;12.60;;
948;SDS011;461;51.436;7.312;2023-06-22T11:44:38;14.63;;;13.13;;
948;SDS011;461;51.436;7.312;2023-06-22T11:47:05;14.90;;;12.37;;
948;SDS011;461;51.436;7.312;2023-06-22T11:49:34;16.40;;;14.07;;
948;SDS011;461;51.436;7.312;2023-06-22T11:52:00;16.10;;;14.10;;
948;SDS011;461;51.436;7.312;2023-06-22T11:54:26;20.20;;;15.80;;
948;SDS011;461;51.436;7.312;2023-06-22T11:56:52;16.90;;;15.10;;
948;SDS011;461;51.436;7.312;2023-06-22T11:59:19;20.97;;;16.30;;
948;SDS011;461;51.436;7.312;2023-06-22T12:01:47;21.47;;;16.50;;
948;SDS011;461;51.436;7.312;2023-06-22T12:04:14;18.67;;;15.80;;
948;SDS011;461;51.436;7.312;2023-06-22T12:06:40;18.67;;;16.77;;
948;SDS011;461;51.436;7.312;2023-06-22T12:09:10;23.30;;;17.87;;
948;SDS011;461;51.436;7.312;2023-06-22T12:11:38;21.43;;;16.07;;
948;SDS011;461;51.436;7.312;2023-06-22T12:14:04;20.30;;;17.07;;
948;SDS011;461;51.436;7.312;2023-06-22T12:16:30;21.37;;;17.17;;
948;SDS011;461;51.436;7.312;2023-06-22T12:21:26;25.40;;;15.70;;
948;SDS011;461;51.436;7.312;2023-06-22T12:23:54;20.10;;;16.30;;
948;SDS011;461;51.436;7.312;2023-06-22T12:26:20;16.97;;;15.23;;
948;SDS011;461;51.436;7.312;2023-06-22T12:28:47;17.47;;;15.77;;
948;SDS011;461;51.436;7.312;2023-06-22T12:31:13;18.70;;;16.53;;
948;SDS011;461;51.436;7.312;2023-06-22T12:33:40;19.70;;;17.60;;
948;SDS011;461;51.436;7.312;2023-06-22T12:36:06;18.30;;;16.40;;
948;SDS011;461;51.436;7.312;2023-06-22T12:38:32;17.20;;;15.40;;
948;SDS011;461;51.436;7.312;2023-06-22T12:41:02;17.90;;;16.00;;
948;SDS011;461;51.436;7.312;2023-06-22T12:43:36;17.77;;;15.73;;
948;SDS011;461;51.436;7.312;2023-06-22T12:46:03;16.83;;;15.03;;
948;SDS011;461;51.436;7.312;2023-06-22T12:48:29;20.40;;;16.90;;
948;SDS011;461;51.436;7.312;2023-06-22T12:50:55;19.47;;;16.70;;
948;SDS011;461;51.436;7.312;2023-06-22T12:53:21;19.20;;;17.20;;
948;SDS011;461;51.436;7.312;2023-06-22T12:55:48;18.27;;;16.07;;
948;SDS011;461;51.436;7.312;2023-06-22T12:58:14;20.33;;;16.13;;
948;SDS011;461;51.436;7.312;2023-06-22T13:00:41;16.93;;;15.13;;
948;SDS011;461;51.436;7.312;2023-06-22T13:03:07;19.03;;;16.63;;
948;SDS011;461;51.436;7.312;2023-06-22T13:05:33;20.50;;;18.27;;
948;SDS011;461;51.436;7.312;2023-06-22T13:08:01;17.87;;;15.97;;
948;SDS011;461;51.436;7.312;2023-06-22T13:10:43;17.80;;;15.97;;
948;SDS011;461;51.436;7.312;2023-06-22T13:17:13;18.93;;;15.90;;
948;SDS011;461;51.436;7.312;2023-06-22T13:19:53;15.50;;;13.90;;
948;SDS011;461;51.436;7.312;2023-06-22T13:22:34;17.30;;;15.60;;
948;SDS011;461;51.436;7.312;2023-06-22T13:25:08;17.07;;;15.20;;
948;SDS011;461;51.436;7.312;2023-06-22T13:27:39;18.30;;;16.40;;
948;SDS011;461;51.436;7.312;2023-06-22T13:30:05;17.43;;;15.47;;
948;SDS011;461;51.436;7.312;2023-06-22T13:32:31;18.77;;;15.27;;
948;SDS011;461;51.436;7.312;2023-06-22T13:34:57;15.50;;;13.90;;
948;SDS011;461;51.436;7.312;2023-06-22T13:37:24;17.93;;;14.03;;
948;SDS011;461;51.436;7.312;2023-06-22T13:39:50;18.03;;;15.77;;
948;SDS011;461;51.436;7.312;2023-06-22T13:42:16;25.17;;;18.67;;
948;SDS011;461;51.436;7.312;2023-06-22T13:44:51;19.87;;;16.00;;
948;SDS011;461;51.436;7.312;2023-06-22T13:51:07;19.60;;;16.10;;
948;SDS011;461;51.436;7.312;2023-06-22T13:53:54;18.07;;;16.27;;
948;SDS011;461;51.436;7.312;2023-06-22T14:31:02;16.10;;;14.40;;
948;SDS011;461;51.436;7.312;2023-06-22T14:36:23;15.77;;;13.00;;
948;SDS011;461;51.436;7.312;2023-06-22T14:38:49;14.60;;;13.17;;
948;SDS011;461;51.436;7.312;2023-06-22T14:41:19;16.70;;;14.50;;
948;SDS011;461;51.436;7.312;2023-06-22T14:43:48;14.27;;;12.77;;
948;SDS011;461;51.436;7.312;2023-06-22T14:46:18;15.53;;;13.40;;
948;SDS011;461;51.436;7.312;2023-06-22T14:48:44;16.00;;;14.50;;
948;SDS011;461;51.436;7.312;2023-06-22T14:51:12;16.13;;;14.47;;
948;SDS011;461;51.436;7.312;2023-06-22T14:53:38;16.27;;;14.57;;
948;SDS011;461;51.436;7.312;2023-06-22T14:56:05;17.37;;;14.63;;
948;SDS011;461;51.436;7.312;2023-06-22T14:58:31;15.83;;;14.13;;
948;SDS011;461;51.436;7.312;2023-06-22T15:01:03;16.03;;;14.53;;
948;SDS011;461;51.436;7.312;2023-06-22T15:03:30;15.57;;;13.97;;
948;SDS011;461;51.436;7.312;2023-06-22T15:05:57;15.83;;;13.50;;
948;SDS011;461;51.436;7.312;2023-06-22T15:08:24;16.50;;;14.80;;
948;SDS011;461;51.436;7.312;2023-06-22T15:10:51;15.80;;;14.17;;
948;SDS011;461;51.436;7.312;2023-06-22T15:13:17;16.03;;;14.43;;
948;SDS011;461;51.436;7.312;2023-06-22T15:15:47;15.30;;;13.70;;
948;SDS011;461;51.436;7.312;2023-06-22T15:18:13;16.97;;;15.20;;
948;SDS011;461;51.436;7.312;2023-06-22T15:20:40;19.30;;;17.40;;
948;SDS011;461;51.436;7.312;2023-06-22T15:23:06;19.23;;;17.23;;
948;SDS011;461;51.436;7.312;2023-06-22T15:25:34;18.37;;;16.30;;
948;SDS011;461;51.436;7.312;2023-06-22T15:28:01;17.33;;;15.53;;
948;SDS011;461;51.436;7.312;2023-06-22T15:30:27;18.70;;;16.80;;
948;SDS011;461;51.436;7.312;2023-06-22T15:32:56;19.57;;;17.57;;
948;SDS011;461;51.436;7.312;2023-06-22T15:35:23;17.63;;;15.87;;
948;SDS011;461;51.436;7.312;2023-06-22T15:37:49;19.30;;;17.33;;
948;SDS011;461;51.436;7.312;2023-06-22T15:40:16;21.00;;;18.80;;
948;SDS011;461;51.436;7.312;2023-06-22T15:42:45;20.57;;;17.40;;
948;SDS011;461;51.436;7.312;2023-06-22T15:45:12;21.20;;;18.83;;
948;SDS011;461;51.436;7.312;2023-06-22T15:47:38;21.87;;;18.93;;
948;SDS011;461;51.436;7.312;2023-06-22T15:50:04;21.77;;;19.30;;
948;SDS011;461;51.436;7.312;2023-06-22T15:52:31;25.43;;;21.37;;
948;SDS011;461;51.436;7.312;2023-06-22T15:54:57;29.90;;;25.20;;
948;SDS011;461;51.436;7.312;2023-06-22T15:57:25;24.47;;;21.80;;
948;SDS011;461;51.436;7.312;2023-06-22T16:00:09;26.40;;;22.57;;
948;SDS011;461;51.436;7.312;2023-06-22T16:02:39;27.90;;;21.83;;
948;SDS011;461;51.436;7.312;2023-06-22T16:05:08;26.60;;;22.80;;
948;SDS011;461;51.436;7.312;2023-06-22T16:10:49;26.90;;;24.00;;
948;SDS011;461;51.436;7.312;2023-06-22T16:13:19;30.87;;;27.40;;
948;SDS011;461;51.436;7.312;2023-06-22T16:15:45;33.00;;;26.70;;
948;SDS011;461;51.436;7.312;2023-06-22T16:18:11;45.53;;;27.53;;
948;SDS011;461;51.436;7.312;2023-06-22T16:20:38;35.50;;;27.37;;
948;SDS011;461;51.436;7.312;2023-06-22T16:23:04;32.03;;;28.73;;